Time;durP1;ratioP1;P1;durP2;ratioP2;P2;SDS_P1;SDS_P2;PMS_P1;PMS_P2;Temp;Humidity;BMP_temperature;BMP_pressure;BME280_temperature;BME280_humidity;BME280_pressure;Samples;Min_cycle;Max_cycle;Signal;HPM_P1;HPM_P2
2022/04/15 00:00:12;;;;;;;4.10;2.20;;;20.90;70.10;;;;;;5053355;28;20282;-85
2022/04/15 00:02:40;;;;;;;3.47;1.57;;;21.00;69.70;;;;;;5055180;28;20184;-79
2022/04/15 00:07:53;;;;;;;3.47;1.80;;;21.30;69.40;;;;;;5052353;28;20573;-74
2022/04/15 00:10:22;;;;;;;3.60;1.40;;;21.30;68.90;;;;;;5050570;28;20176;-75
2022/04/15 00:12:49;;;;;;;4.50;1.50;;;21.40;68.50;;;;;;5042561;28;20552;-75
2022/04/15 00:15:17;;;;;;;2.23;1.23;;;21.50;67.60;;;;;;5052257;28;20325;-74
2022/04/15 00:17:45;;;;;;;4.23;1.20;;;21.60;67.40;;;;;;5047973;28;20180;-75
2022/04/15 00:20:13;;;;;;;4.40;1.77;;;21.60;66.70;;;;;;5053828;28;20184;-78
2022/04/15 00:22:41;;;;;;;4.47;1.43;;;21.70;66.50;;;;;;5048022;28;20172;-76
2022/04/15 00:25:10;;;;;;;5.37;1.60;;;21.80;66.80;;;;;;5046732;28;20188;-75
2022/04/15 00:27:39;;;;;;;3.43;1.60;;;22.00;66.50;;;;;;5043856;28;20642;-77
2022/04/15 00:30:08;;;;;;;3.60;1.40;;;22.10;66.10;;;;;;5053527;28;20234;-74
2022/04/15 00:32:36;;;;;;;3.00;1.20;;;22.10;65.80;;;;;;5055632;28;20299;-77
2022/04/15 00:35:05;;;;;;;6.07;1.40;;;22.20;63.90;;;;;;5053035;28;20176;-75
2022/04/15 00:37:32;;;;;;;5.63;1.40;;;22.30;63.20;;;;;;5051481;28;20661;-76
2022/04/15 00:40:02;;;;;;;3.30;1.50;;;22.30;63.60;;;;;;5050267;28;20258;-78
2022/04/15 00:42:30;;;;;;;4.87;1.47;;;22.20;63.30;;;;;;5053210;28;20729;-79
2022/04/15 00:44:59;;;;;;;5.10;1.43;;;22.40;62.90;;;;;;5047601;28;20201;-79
2022/04/15 00:47:47;;;;;;;5.07;1.40;;;22.30;62.80;;;;;;5050818;28;20186;-75
2022/04/15 00:50:16;;;;;;;5.73;1.70;;;22.40;63.00;;;;;;5051259;28;20271;-77
2022/04/15 00:52:46;;;;;;;6.57;2.13;;;22.60;63.40;;;;;;5049398;28;20267;-76
2022/04/15 00:55:15;;;;;;;7.00;2.50;;;22.60;62.30;;;;;;5058616;28;20179;-75
2022/04/15 00:57:51;;;;;;;2.83;1.20;;;22.60;63.00;;;;;;5039584;28;20208;-75
2022/04/15 01:00:20;;;;;;;5.03;1.50;;;22.80;62.20;;;;;;5047893;28;20631;-77
2022/04/15 01:02:49;;;;;;;5.53;2.90;;;22.80;61.20;;;;;;5055176;28;20234;-78
2022/04/15 01:05:19;;;;;;;4.27;1.20;;;22.90;61.50;;;;;;5044300;28;20192;-75
2022/04/15 01:07:49;;;;;;;3.50;1.00;;;22.90;60.60;;;;;;5050202;28;20187;-78
2022/04/15 01:10:19;;;;;;;4.90;1.30;;;23.00;60.40;;;;;;5052054;28;20187;-75
2022/04/15 01:12:49;;;;;;;5.17;1.23;;;22.80;60.50;;;;;;5052400;28;20204;-76
2022/04/15 01:15:16;;;;;;;2.63;1.10;;;22.90;60.30;;;;;;5048562;28;20192;-78
2022/04/15 01:17:44;;;;;;;3.23;1.10;;;23.00;60.50;;;;;;5046097;28;20188;-78
2022/04/15 01:20:13;;;;;;;3.30;1.20;;;23.20;59.50;;;;;;5049996;28;20198;-73
2022/04/15 01:22:41;;;;;;;4.53;1.20;;;23.10;59.80;;;;;;5050409;28;20756;-79
2022/04/15 01:25:12;;;;;;;3.10;1.10;;;23.10;59.70;;;;;;5052355;28;20237;-77
2022/04/15 01:27:42;;;;;;;5.23;1.40;;;23.00;60.70;;;;;;5052147;28;20184;-78
2022/04/15 01:30:16;;;;;;;2.83;1.13;;;23.20;59.10;;;;;;5050813;28;20234;-76
2022/04/15 01:32:45;;;;;;;2.67;1.20;;;23.30;59.60;;;;;;5054028;28;20257;-77
2022/04/15 01:35:14;;;;;;;4.20;2.90;;;23.50;59.50;;;;;;5033286;28;20177;-77
2022/04/15 01:37:43;;;;;;;3.90;1.20;;;23.50;58.20;;;;;;5051048;28;20187;-78
2022/04/15 01:40:12;;;;;;;5.43;1.50;;;23.40;58.00;;;;;;5052549;28;20184;-76
2022/04/15 01:42:41;;;;;;;4.00;1.60;;;23.50;59.30;;;;;;5042121;28;20224;-77
2022/04/15 01:45:09;;;;;;;3.07;1.10;;;23.60;57.60;;;;;;5032459;28;20176;-78
2022/04/15 01:47:37;;;;;;;1.90;1.10;;;23.70;57.50;;;;;;5035765;28;20809;-74
2022/04/15 01:50:09;;;;;;;5.20;1.20;;;24.10;57.00;;;;;;5032805;28;20551;-74
2022/04/15 01:52:37;;;;;;;3.03;1.20;;;24.20;56.40;;;;;;5045422;28;20219;-76
2022/04/15 01:55:04;;;;;;;2.80;0.97;;;24.30;55.70;;;;;;5053968;28;20179;-75
2022/04/15 01:57:32;;;;;;;4.23;1.00;;;24.40;55.40;;;;;;5051805;28;20180;-76
2022/04/15 01:59:59;;;;;;;2.40;1.10;;;24.70;54.30;;;;;;5051504;28;20170;-76
2022/04/15 02:02:26;;;;;;;3.10;0.90;;;24.80;54.20;;;;;;5052018;28;20176;-75
2022/04/15 02:04:54;;;;;;;5.00;3.37;;;24.80;53.70;;;;;;5049233;28;20179;-77
2022/04/15 02:07:22;;;;;;;5.07;1.00;;;25.10;53.60;;;;;;5051633;28;20184;-73
2022/04/15 02:09:49;;;;;;;1.80;0.83;;;25.30;52.60;;;;;;5051754;28;20533;-76
2022/04/15 02:12:16;;;;;;;4.00;0.90;;;25.30;52.10;;;;;;5048996;28;20215;-75
2022/04/15 02:14:46;;;;;;;3.93;1.30;;;25.30;51.70;;;;;;5051212;28;20545;-76
2022/04/15 02:17:13;;;;;;;4.23;0.97;;;25.00;52.60;;;;;;5050490;28;20222;-81
2022/04/15 02:19:40;;;;;;;5.73;1.47;;;24.60;53.60;;;;;;5049658;28;20184;-77
2022/04/15 02:22:08;;;;;;;6.03;0.97;;;25.10;53.40;;;;;;5049756;28;20242;-73
2022/04/15 02:24:35;;;;;;;5.37;1.23;;;25.40;52.60;;;;;;5046449;28;20646;-77
2022/04/15 02:27:03;;;;;;;2.77;0.90;;;25.50;51.90;;;;;;5051961;28;20184;-73
2022/04/15 02:29:32;;;;;;;3.77;0.93;;;25.70;50.80;;;;;;5052076;28;20263;-73
2022/04/15 02:31:59;;;;;;;3.17;0.70;;;25.60;50.10;;;;;;5055068;28;20818;-73
2022/04/15 02:34:27;;;;;;;4.03;1.77;;;25.40;50.40;;;;;;5072087;28;20182;-69
2022/04/15 02:36:54;;;;;;;3.60;1.50;;;25.20;51.10;;;;;;5072411;28;20662;-72
2022/04/15 02:39:21;;;;;;;3.23;1.00;;;25.30;50.90;;;;;;5075836;28;20262;-75
2022/04/15 02:41:51;;;;;;;1.70;0.63;;;25.60;50.90;;;;;;5037351;28;20569;-75
2022/04/15 02:44:19;;;;;;;4.80;1.00;;;25.70;50.40;;;;;;5035675;28;20201;-73
2022/04/15 02:46:47;;;;;;;2.90;0.80;;;25.80;50.50;;;;;;5034188;28;20242;-87
2022/04/15 02:49:15;;;;;;;2.43;1.13;;;25.80;49.50;;;;;;5035486;28;20649;-73
2022/04/15 02:51:42;;;;;;;3.20;1.07;;;25.80;50.50;;;;;;5035013;28;20212;-74
2022/04/15 02:54:09;;;;;;;2.03;0.80;;;25.80;50.50;;;;;;5035540;28;20654;-83
2022/04/15 02:56:37;;;;;;;6.33;0.80;;;26.10;49.30;;;;;;5035371;28;20198;-77
2022/04/15 02:59:04;;;;;;;2.37;0.80;;;26.30;47.10;;;;;;5035606;28;20291;-81
2022/04/15 03:01:31;;;;;;;1.33;0.90;;;26.60;46.90;;;;;;5035597;28;20443;-84
2022/04/15 03:03:59;;;;;;;3.67;0.70;;;26.60;46.20;;;;;;5054141;28;20183;-70
2022/04/15 03:06:26;;;;;;;4.17;0.80;;;26.00;47.60;;;;;;5055302;28;20176;-70
2022/04/15 03:08:55;;;;;;;1.80;1.00;;;26.10;47.30;;;;;;5055255;28;20171;-70
2022/04/15 03:11:22;;;;;;;4.30;1.87;;;26.00;48.00;;;;;;5054485;28;20192;-72
2022/04/15 03:13:49;;;;;;;3.80;1.53;;;25.90;47.70;;;;;;5054912;28;20231;-73
2022/04/15 03:16:17;;;;;;;2.57;0.73;;;25.60;48.60;;;;;;5054951;28;20239;-72
2022/04/15 03:18:44;;;;;;;2.17;0.60;;;26.00;48.70;;;;;;5055146;28;20634;-74
2022/04/15 03:21:12;;;;;;;4.40;2.57;;;26.10;49.40;;;;;;5055015;28;20200;-73
2022/04/15 03:23:41;;;;;;;4.37;1.00;;;26.50;50.20;;;;;;5055295;28;20206;-73
2022/04/15 03:26:09;;;;;;;3.60;1.93;;;25.90;50.90;;;;;;5054734;28;20167;-73
2022/04/15 03:28:37;;;;;;;5.13;1.33;;;26.40;49.80;;;;;;5048224;28;20191;-74
2022/04/15 03:31:05;;;;;;;4.67;0.70;;;27.00;47.20;;;;;;5049779;28;20176;-74
2022/04/15 03:33:33;;;;;;;4.33;2.27;;;27.30;46.90;;;;;;5054724;28;20322;-73
2022/04/15 03:36:00;;;;;;;2.80;1.50;;;27.40;47.20;;;;;;5054360;28;20176;-73
2022/04/15 03:38:27;;;;;;;3.07;0.87;;;27.40;45.40;;;;;;5054672;28;20684;-73
2022/04/15 03:40:55;;;;;;;2.80;0.80;;;26.90;48.60;;;;;;5053372;28;20180;-73
2022/04/15 03:43:22;;;;;;;2.53;1.10;;;27.80;46.00;;;;;;5053711;28;20607;-73
2022/04/15 03:45:49;;;;;;;8.47;4.07;;;27.60;47.20;;;;;;5053964;28;20171;-72
2022/04/15 03:48:17;;;;;;;5.43;1.00;;;27.70;47.50;;;;;;5053485;28;20187;-72
2022/04/15 03:50:44;;;;;;;3.17;0.80;;;28.30;45.90;;;;;;5053094;28;20229;-75
2022/04/15 03:53:11;;;;;;;4.15;1.10;;;27.50;48.30;;;;;;5053577;28;20246;-74
2022/04/15 03:55:39;;;;;;;3.53;0.93;;;26.80;49.60;;;;;;5053343;28;20512;-74
2022/04/15 03:58:07;;;;;;;4.30;0.90;;;26.60;51.00;;;;;;5051070;28;20187;-73
2022/04/15 04:00:34;;;;;;;3.60;1.03;;;26.80;49.90;;;;;;5052297;28;20211;-74
2022/04/15 04:03:02;;;;;;;2.63;1.00;;;26.90;51.70;;;;;;5048381;28;20278;-73
2022/04/15 04:05:29;;;;;;;3.28;1.15;;;27.20;49.70;;;;;;5052593;28;20191;-73
2022/04/15 04:07:56;;;;;;;3.10;1.00;;;27.50;48.60;;;;;;5052781;28;20211;-73
2022/04/15 04:10:24;;;;;;;4.10;1.30;;;28.30;46.70;;;;;;5052850;28;20179;-73
2022/04/15 04:12:51;;;;;;;4.18;1.10;;;27.70;49.70;;;;;;5052712;28;20215;-73
2022/04/15 04:15:19;;;;;;;2.67;1.20;;;27.70;49.50;;;;;;5052113;28;20191;-74
2022/04/15 04:17:48;;;;;;;3.00;0.93;;;27.00;50.90;;;;;;5053183;28;20210;-72
2022/04/15 04:20:19;;;;;;;7.47;1.33;;;26.80;50.80;;;;;;5052364;28;20658;-74
2022/04/15 04:22:46;;;;;;;6.40;1.00;;;26.80;50.60;;;;;;5052899;28;20345;-72
2022/04/15 04:25:13;;;;;;;5.60;1.30;;;26.20;52.10;;;;;;5053408;28;20184;-75
2022/04/15 04:27:43;;;;;;;7.53;1.20;;;26.20;52.10;;;;;;5052457;28;20188;-74
2022/04/15 04:30:15;;;;;;;4.03;1.00;;;26.50;50.50;;;;;;5049811;28;20192;-74
2022/04/15 04:32:52;;;;;;;5.00;1.17;;;27.50;48.50;;;;;;5062575;28;20246;-75
2022/04/15 04:35:21;;;;;;;5.77;1.17;;;28.60;45.90;;;;;;5053503;28;20233;-74
2022/04/15 04:37:49;;;;;;;3.17;1.03;;;27.80;46.90;;;;;;5052302;28;20528;-75
2022/04/15 04:40:17;;;;;;;6.03;1.35;;;28.40;45.50;;;;;;5051518;28;20184;-75
2022/04/15 04:42:50;;;;;;;6.97;1.33;;;28.30;45.70;;;;;;5050882;28;20681;-73
2022/04/15 04:45:18;;;;;;;4.00;0.93;;;29.20;44.70;;;;;;5053031;28;20180;-75
2022/04/15 04:47:47;;;;;;;3.75;1.23;;;28.90;44.40;;;;;;5051961;28;20196;-75
2022/04/15 04:50:15;;;;;;;3.55;1.10;;;29.30;44.00;;;;;;5049753;28;20205;-72
2022/04/15 04:52:42;;;;;;;6.00;1.20;;;28.80;45.20;;;;;;5052276;28;20230;-74
2022/04/15 04:55:10;;;;;;;4.22;0.90;;;28.50;45.70;;;;;;5050142;28;20201;-73
2022/04/15 04:57:38;;;;;;;3.35;0.80;;;27.80;47.10;;;;;;5049610;28;20186;-74
2022/04/15 05:00:07;;;;;;;9.43;1.02;;;28.20;47.10;;;;;;5048731;28;20215;-73
2022/04/15 05:02:35;;;;;;;3.80;0.70;;;28.20;47.40;;;;;;5047833;28;20237;-75
2022/04/15 05:05:03;;;;;;;5.60;1.00;;;27.80;48.30;;;;;;5052354;28;20267;-74
2022/04/15 05:07:30;;;;;;;3.57;1.00;;;26.90;49.60;;;;;;5052114;28;20180;-73
2022/04/15 05:09:58;;;;;;;5.83;0.90;;;26.40;51.50;;;;;;5050204;28;20176;-73
2022/04/15 05:12:25;;;;;;;2.80;0.60;;;25.30;54.40;;;;;;5050131;28;20748;-73
2022/04/15 05:14:53;;;;;;;3.17;0.90;;;25.20;55.30;;;;;;5052479;28;20180;-75
2022/04/15 05:17:20;;;;;;;3.97;0.63;;;24.90;56.50;;;;;;5052740;28;20176;-73
2022/04/15 05:19:47;;;;;;;4.17;0.97;;;24.60;56.90;;;;;;5051706;28;20662;-72
2022/04/15 05:22:15;;;;;;;4.20;0.80;;;24.30;57.90;;;;;;5052678;28;20225;-76
2022/04/15 05:24:42;;;;;;;7.47;1.13;;;24.00;58.90;;;;;;5052122;28;20191;-75
2022/04/15 05:27:09;;;;;;;5.73;1.20;;;23.90;59.60;;;;;;5050931;28;20642;-74
2022/04/15 05:29:37;;;;;;;2.03;0.60;;;23.90;59.50;;;;;;5051434;28;20206;-74
2022/04/15 05:32:04;;;;;;;2.77;1.30;;;23.90;59.10;;;;;;5050097;28;20264;-75
2022/04/15 05:34:32;;;;;;;5.47;0.97;;;24.10;58.70;;;;;;5050384;28;20241;-75
2022/04/15 05:36:59;;;;;;;5.37;1.43;;;25.10;56.40;;;;;;5052464;28;20269;-74
2022/04/15 05:39:26;;;;;;;3.33;1.00;;;26.10;53.30;;;;;;5051226;28;20249;-72
2022/04/15 05:41:54;;;;;;;5.33;1.00;;;27.10;50.10;;;;;;5049506;28;20212;-72
2022/04/15 05:44:21;;;;;;;4.57;1.07;;;27.10;49.70;;;;;;5052419;28;20278;-75
2022/04/15 05:46:49;;;;;;;8.57;1.30;;;27.30;49.30;;;;;;5050717;28;20180;-76
2022/04/15 05:49:17;;;;;;;5.17;0.87;;;26.90;50.50;;;;;;5051994;28;20180;-76
2022/04/15 05:51:48;;;;;;;5.83;1.00;;;27.10;49.90;;;;;;5052375;28;20223;-77
2022/04/15 05:54:15;;;;;;;4.13;1.00;;;26.60;51.20;;;;;;5047410;28;20195;-74
2022/04/15 05:56:43;;;;;;;3.37;0.93;;;26.90;50.90;;;;;;5050010;28;20198;-75
2022/04/15 05:59:10;;;;;;;7.63;0.90;;;27.30;49.20;;;;;;5051037;28;20241;-76
2022/04/15 06:01:37;;;;;;;5.43;1.20;;;27.50;48.60;;;;;;5050162;28;20631;-75
2022/04/15 06:04:05;;;;;;;2.10;0.90;;;27.10;49.50;;;;;;5051252;28;20215;-75
2022/04/15 06:06:32;;;;;;;4.67;0.93;;;26.30;52.10;;;;;;5051865;28;20199;-74
2022/04/15 06:09:00;;;;;;;3.33;1.23;;;25.80;53.20;;;;;;5050340;28;20194;-71
2022/04/15 06:11:27;;;;;;;4.53;0.90;;;24.80;56.00;;;;;;5050923;28;20190;-73
2022/04/15 06:13:54;;;;;;;6.77;1.10;;;24.20;57.90;;;;;;5055378;28;20215;-77
2022/04/15 06:16:22;;;;;;;3.57;1.10;;;23.80;59.10;;;;;;5055893;28;20242;-73
2022/04/15 06:18:49;;;;;;;5.03;0.80;;;23.60;60.10;;;;;;5055676;28;20184;-76
2022/04/15 06:21:17;;;;;;;3.93;1.10;;;23.30;61.40;;;;;;5055694;28;20191;-75
2022/04/15 06:23:44;;;;;;;2.20;1.10;;;23.10;62.10;;;;;;5053433;28;20267;-76
2022/04/15 06:26:11;;;;;;;8.10;2.47;;;22.80;62.50;;;;;;5055615;28;20198;-75
2022/04/15 06:28:39;;;;;;;5.07;1.03;;;22.80;62.90;;;;;;5052376;28;20259;-77
2022/04/15 06:31:06;;;;;;;2.77;0.80;;;22.80;63.00;;;;;;5050715;28;20184;-74
2022/04/15 06:33:52;;;;;;;4.00;1.00;;;22.70;63.30;;;;;;5069356;28;20224;-74
2022/04/15 06:36:22;;;;;;;6.00;1.60;;;22.60;63.60;;;;;;5055527;28;20218;-73
2022/04/15 06:38:49;;;;;;;3.93;1.03;;;22.50;63.70;;;;;;5054946;28;20180;-74
2022/04/15 06:41:18;;;;;;;2.77;0.87;;;22.50;63.60;;;;;;5052302;28;20260;-73
2022/04/15 06:43:46;;;;;;;4.50;0.97;;;22.40;63.50;;;;;;5051770;28;20195;-73
2022/04/15 06:46:13;;;;;;;3.47;1.00;;;22.50;63.60;;;;;;5055019;28;20222;-73
2022/04/15 06:48:41;;;;;;;3.03;0.70;;;22.30;63.80;;;;;;5053712;28;20542;-73
2022/04/15 06:51:08;;;;;;;5.50;1.00;;;22.30;64.30;;;;;;5053244;28;20184;-73
2022/04/15 06:53:35;;;;;;;4.90;0.80;;;22.30;64.70;;;;;;5054365;28;20258;-73
2022/04/15 06:56:03;;;;;;;6.63;1.10;;;22.20;65.10;;;;;;5054188;28;20199;-73
2022/04/15 06:58:30;;;;;;;5.73;0.83;;;22.10;65.40;;;;;;5040183;28;20572;-73
2022/04/15 07:00:57;;;;;;;7.07;1.20;;;22.00;65.50;;;;;;5055782;28;20176;-71
2022/04/15 07:03:25;;;;;;;4.63;1.10;;;21.90;65.80;;;;;;5055904;28;20736;-72
2022/04/15 07:05:52;;;;;;;3.57;1.00;;;21.90;66.30;;;;;;5049083;28;20582;-75
2022/04/15 07:08:19;;;;;;;6.37;1.00;;;21.80;66.60;;;;;;5045083;28;20190;-74
2022/04/15 07:10:47;;;;;;;4.50;1.10;;;21.80;66.90;;;;;;5052498;28;20266;-78
2022/04/15 07:13:14;;;;;;;5.20;0.93;;;21.70;67.40;;;;;;5052826;28;20707;-75
2022/04/15 07:15:42;;;;;;;5.67;1.20;;;21.70;67.50;;;;;;5052126;28;20187;-75
2022/04/15 07:18:09;;;;;;;2.90;0.97;;;21.50;67.50;;;;;;5054315;28;20203;-75
2022/04/15 07:20:36;;;;;;;3.47;1.10;;;21.50;68.10;;;;;;5052884;28;20184;-75
2022/04/15 07:23:04;;;;;;;3.00;1.00;;;21.50;68.50;;;;;;5051812;28;20194;-75
2022/04/15 07:25:33;;;;;;;5.03;1.20;;;21.40;68.60;;;;;;5054567;28;20176;-74
2022/04/15 07:28:01;;;;;;;3.90;1.00;;;21.30;68.80;;;;;;5053588;28;20188;-74
2022/04/15 07:30:29;;;;;;;4.43;1.13;;;21.30;69.50;;;;;;5054851;28;20245;-74
2022/04/15 07:32:56;;;;;;;3.60;1.00;;;21.30;69.70;;;;;;5065742;28;20215;-74
2022/04/15 07:35:24;;;;;;;4.87;1.13;;;21.20;70.10;;;;;;5053652;28;20199;-74
2022/04/15 07:37:51;;;;;;;6.23;1.00;;;21.20;70.40;;;;;;5053439;28;20176;-74
2022/04/15 07:40:18;;;;;;;4.60;1.20;;;21.10;70.60;;;;;;5054045;28;21739;-75
2022/04/15 07:42:46;;;;;;;4.20;1.30;;;21.10;71.00;;;;;;5053537;28;20228;-74
2022/04/15 07:45:13;;;;;;;5.57;1.33;;;21.00;70.90;;;;;;5054206;28;20199;-74
2022/04/15 07:47:40;;;;;;;4.90;1.00;;;21.00;71.10;;;;;;5054128;28;20263;-75
2022/04/15 07:50:08;;;;;;;5.20;1.10;;;20.90;71.30;;;;;;5053637;28;20630;-75
2022/04/15 07:52:36;;;;;;;2.87;1.00;;;20.90;71.60;;;;;;5053790;28;20582;-75
2022/04/15 07:55:04;;;;;;;4.40;1.10;;;20.80;71.90;;;;;;5053124;28;20662;-74
2022/04/15 07:57:31;;;;;;;5.33;1.47;;;20.80;72.00;;;;;;5049770;28;20187;-75
2022/04/15 07:59:58;;;;;;;2.60;0.90;;;20.80;71.90;;;;;;5053760;28;20183;-75
2022/04/15 08:02:26;;;;;;;4.07;1.20;;;20.80;72.10;;;;;;5053729;28;20180;-75
2022/04/15 08:04:53;;;;;;;5.33;1.30;;;20.80;71.90;;;;;;5053624;28;20176;-72
2022/04/15 08:07:22;;;;;;;5.90;1.07;;;20.80;71.90;;;;;;5054160;28;20183;-73
2022/04/15 08:09:49;;;;;;;2.30;1.03;;;20.70;72.10;;;;;;5050904;28;20192;-74
2022/04/15 08:12:17;;;;;;;5.63;1.30;;;20.70;72.00;;;;;;5052318;28;20220;-73
2022/04/15 08:14:44;;;;;;;9.60;1.70;;;20.70;72.20;;;;;;5052638;28;20704;-74
2022/04/15 08:17:11;;;;;;;6.43;1.70;;;20.60;72.40;;;;;;5054141;28;20176;-72
2022/04/15 08:19:39;;;;;;;4.57;1.30;;;20.50;72.40;;;;;;5053713;28;20176;-72
2022/04/15 08:22:09;;;;;;;7.50;1.27;;;20.60;72.60;;;;;;5053411;28;20179;-74
2022/04/15 08:24:42;;;;;;;4.93;1.60;;;20.50;72.40;;;;;;5054020;28;20176;-73
2022/04/15 08:27:13;;;;;;;3.57;1.70;;;20.50;72.30;;;;;;5051742;28;20188;-75
2022/04/15 08:29:40;;;;;;;5.33;1.30;;;20.50;72.40;;;;;;5053487;28;20183;-72
2022/04/15 08:32:09;;;;;;;9.60;1.90;;;20.50;72.60;;;;;;5052926;28;20204;-73
2022/04/15 08:34:37;;;;;;;3.90;1.20;;;20.50;72.80;;;;;;5053258;28;20176;-73
2022/04/15 08:37:09;;;;;;;5.03;1.40;;;20.40;72.90;;;;;;5062416;28;20187;-75
2022/04/15 08:39:36;;;;;;;3.87;1.23;;;20.40;73.10;;;;;;5052726;28;20179;-74
2022/04/15 08:42:08;;;;;;;5.73;1.30;;;20.40;73.20;;;;;;5052522;28;20223;-76
2022/04/15 08:44:35;;;;;;;8.73;1.70;;;20.40;73.70;;;;;;5052988;28;20648;-72
2022/04/15 08:47:04;;;;;;;3.10;1.30;;;20.40;73.70;;;;;;5053541;28;20184;-74
2022/04/15 08:49:31;;;;;;;8.00;1.50;;;20.30;73.70;;;;;;5052788;28;20227;-74
2022/04/15 08:51:59;;;;;;;8.20;1.57;;;20.30;73.80;;;;;;5052811;28;20833;-74
2022/04/15 08:54:26;;;;;;;6.23;1.27;;;20.30;74.00;;;;;;5053276;28;20168;-74
2022/04/15 08:56:53;;;;;;;2.50;1.30;;;20.30;74.00;;;;;;5052431;28;20184;-73
2022/04/15 08:59:21;;;;;;;5.23;1.33;;;20.30;74.20;;;;;;5051709;28;20202;-73
2022/04/15 09:01:50;;;;;;;4.30;1.30;;;20.30;74.20;;;;;;5052555;28;20176;-73
2022/04/15 09:04:19;;;;;;;4.00;1.70;;;20.30;74.40;;;;;;5053140;28;20257;-74
2022/04/15 09:06:54;;;;;;;5.07;2.37;;;20.30;74.40;;;;;;5053070;28;20263;-75
2022/04/15 09:09:24;;;;;;;3.23;2.00;;;20.20;74.60;;;;;;5050085;28;20175;-74
2022/04/15 09:11:52;;;;;;;4.63;1.67;;;20.20;75.00;;;;;;5052194;28;20188;-74
2022/04/15 09:14:21;;;;;;;4.40;1.57;;;20.20;75.20;;;;;;5051958;28;20191;-74
2022/04/15 09:16:48;;;;;;;3.83;1.43;;;20.10;75.30;;;;;;5049732;28;20180;-74
2022/04/15 09:19:17;;;;;;;5.43;1.93;;;20.10;75.50;;;;;;5051663;28;20262;-75
2022/04/15 09:21:56;;;;;;;6.57;1.60;;;20.00;75.80;;;;;;5051481;28;20184;-74
2022/04/15 09:24:34;;;;;;;3.27;1.70;;;20.00;76.10;;;;;;5050673;28;20261;-75
2022/04/15 09:27:07;;;;;;;4.73;1.90;;;20.00;76.10;;;;;;5032973;28;20307;-74
2022/04/15 09:29:36;;;;;;;4.30;1.73;;;20.00;76.30;;;;;;5047994;28;20238;-74
2022/04/15 09:32:09;;;;;;;5.13;1.70;;;19.90;76.20;;;;;;5043810;28;20195;-75
2022/04/15 09:35:01;;;;;;;10.73;2.40;;;20.00;76.40;;;;;;5054647;28;20657;-74
2022/04/15 09:37:42;;;;;;;7.27;1.90;;;20.00;76.50;;;;;;5032822;28;20192;-76
2022/04/15 09:40:18;;;;;;;5.93;1.97;;;19.90;76.40;;;;;;5040932;28;20195;-75
2022/04/15 09:42:52;;;;;;;4.80;2.00;;;19.90;76.50;;;;;;5052073;28;20219;-75
2022/04/15 09:45:21;;;;;;;6.77;1.83;;;19.90;76.70;;;;;;5053026;28;20178;-74
2022/04/15 09:48:05;;;;;;;3.60;1.60;;;19.80;76.50;;;;;;5059325;28;20194;-76
2022/04/15 09:50:43;;;;;;;6.93;2.00;;;19.80;76.40;;;;;;5059100;28;20176;-74
2022/04/15 09:53:11;;;;;;;8.43;1.70;;;19.80;76.40;;;;;;5059304;28;20260;-74
2022/04/15 09:55:40;;;;;;;9.80;1.93;;;19.70;76.10;;;;;;5059139;28;20171;-74
2022/04/15 09:58:18;;;;;;;5.93;1.50;;;19.70;75.90;;;;;;5051877;28;20661;-74
2022/04/15 10:01:00;;;;;;;4.23;1.87;;;19.70;75.50;;;;;;5047540;28;20168;-74
2022/04/15 10:03:28;;;;;;;4.27;1.40;;;19.80;74.90;;;;;;5062980;28;20208;-73
2022/04/15 10:05:58;;;;;;;3.47;1.43;;;19.80;74.60;;;;;;5058652;28;20176;-73
2022/04/15 10:08:27;;;;;;;5.10;1.87;;;19.80;74.50;;;;;;5058980;28;20206;-74
2022/04/15 10:10:56;;;;;;;3.23;1.60;;;19.80;74.80;;;;;;5058947;28;20179;-72
2022/04/15 10:13:28;;;;;;;2.37;1.10;;;19.70;74.40;;;;;;5057703;28;20203;-73
2022/04/15 10:15:57;;;;;;;7.33;1.60;;;19.70;74.40;;;;;;5057026;28;20184;-74
2022/04/15 10:18:26;;;;;;;2.57;1.20;;;19.70;74.50;;;;;;5058424;28;20184;-73
2022/04/15 10:20:54;;;;;;;5.73;1.40;;;19.60;74.70;;;;;;5057037;28;20614;-73
2022/04/15 10:23:23;;;;;;;2.47;1.20;;;19.70;74.80;;;;;;5058557;28;20530;-75
2022/04/15 10:25:52;;;;;;;3.13;1.10;;;19.60;74.70;;;;;;5057671;28;20175;-74
2022/04/15 10:28:24;;;;;;;3.90;1.20;;;19.60;75.00;;;;;;5056639;28;20549;-74
2022/04/15 10:31:11;;;;;;;4.63;1.43;;;19.50;75.10;;;;;;5058851;28;20646;-74
2022/04/15 10:33:43;;;;;;;5.53;1.57;;;19.50;75.40;;;;;;5063308;28;20215;-74
2022/04/15 10:36:22;;;;;;;4.97;1.33;;;19.50;75.60;;;;;;5057932;28;20642;-74
2022/04/15 10:39:07;;;;;;;3.40;1.27;;;19.50;75.90;;;;;;5049882;28;20198;-73
2022/04/15 10:41:48;;;;;;;4.13;1.13;;;19.40;76.10;;;;;;5053866;28;20226;-74
2022/04/15 10:44:38;;;;;;;3.40;1.10;;;19.40;76.00;;;;;;5055248;28;20195;-73
2022/04/15 10:47:17;;;;;;;2.60;1.10;;;19.30;75.80;;;;;;5052482;28;20184;-74
2022/04/15 10:50:06;;;;;;;8.03;1.60;;;19.30;76.20;;;;;;5058778;28;20203;-74
2022/04/15 10:52:35;;;;;;;2.37;1.30;;;19.30;76.20;;;;;;5057346;28;20761;-73
2022/04/15 10:55:08;;;;;;;3.77;1.33;;;19.30;76.40;;;;;;5058290;28;20176;-74
2022/04/15 10:57:37;;;;;;;2.90;1.20;;;19.30;76.60;;;;;;5052363;28;20180;-74
2022/04/15 11:03:22;;;;;;;6.10;1.30;;;19.20;76.40;;;;;;5053692;28;20241;-73
2022/04/15 11:05:50;;;;;;;3.80;1.10;;;19.20;76.60;;;;;;5041892;28;20527;-74
2022/04/15 11:08:26;;;;;;;3.50;1.10;;;19.20;76.50;;;;;;5052356;28;20176;-74
2022/04/15 11:10:58;;;;;;;1.67;1.00;;;19.20;76.50;;;;;;5055068;28;20187;-73
2022/04/15 11:13:34;;;;;;;3.87;1.27;;;19.20;76.70;;;;;;5054270;28;20223;-74
2022/04/15 11:16:16;;;;;;;2.77;1.00;;;19.20;76.30;;;;;;5052919;28;20179;-74
2022/04/15 11:18:51;;;;;;;5.83;1.20;;;19.30;76.30;;;;;;5054917;28;20191;-74
2022/04/15 11:21:23;;;;;;;6.33;1.47;;;19.20;76.60;;;;;;5054375;28;20183;-76
2022/04/15 11:23:55;;;;;;;5.20;1.20;;;19.20;76.20;;;;;;5054646;28;20183;-76
2022/04/15 11:26:24;;;;;;;2.10;1.17;;;19.20;76.20;;;;;;5054196;28;20190;-75
2022/04/15 11:28:53;;;;;;;2.67;1.20;;;19.30;76.20;;;;;;5052544;28;20178;-74
2022/04/15 11:31:37;;;;;;;3.10;1.27;;;19.30;76.30;;;;;;5054407;28;20262;-75
2022/04/15 11:34:13;;;;;;;4.80;1.40;;;19.20;76.30;;;;;;5051921;28;20550;-74
2022/04/15 11:36:42;;;;;;;3.63;1.37;;;19.20;76.40;;;;;;5054300;28;20187;-74
2022/04/15 11:39:19;;;;;;;5.17;1.43;;;19.20;76.70;;;;;;5054625;28;20263;-75
2022/04/15 11:41:52;;;;;;;5.23;1.83;;;19.20;77.00;;;;;;5037701;28;20232;-74
2022/04/15 11:44:21;;;;;;;3.83;1.33;;;19.10;77.50;;;;;;5051434;28;20729;-74
2022/04/15 11:46:51;;;;;;;3.33;1.20;;;19.00;78.10;;;;;;5052977;28;20267;-74
2022/04/15 11:49:21;;;;;;;4.17;1.37;;;18.90;78.10;;;;;;5054795;28;20183;-75
2022/04/15 11:51:57;;;;;;;3.47;1.40;;;18.80;78.80;;;;;;5054143;28;20172;-74
2022/04/15 11:54:35;;;;;;;4.43;1.50;;;18.80;79.10;;;;;;5052361;28;20294;-74
2022/04/15 11:57:05;;;;;;;5.07;1.30;;;18.70;79.60;;;;;;5053816;28;20187;-74
2022/04/15 11:59:43;;;;;;;4.97;1.47;;;18.60;79.90;;;;;;5053475;28;20604;-74
2022/04/15 12:02:15;;;;;;;5.67;1.53;;;18.60;80.20;;;;;;5059521;28;20179;-75
2022/04/15 12:04:56;;;;;;;6.90;1.50;;;18.50;80.50;;;;;;5067250;28;20172;-74
2022/04/15 12:07:24;;;;;;;4.87;1.20;;;18.50;80.90;;;;;;5053921;28;20286;-74
2022/04/15 12:09:53;;;;;;;2.97;1.37;;;18.50;81.00;;;;;;5053683;28;20182;-74
2022/04/15 12:12:24;;;;;;;4.67;1.60;;;18.50;81.10;;;;;;5053217;28;20196;-74
2022/04/15 12:14:53;;;;;;;5.07;1.60;;;18.50;81.10;;;;;;5046928;28;20186;-74
2022/04/15 12:17:22;;;;;;;5.93;1.53;;;18.40;80.80;;;;;;5053945;28;20650;-75
2022/04/15 12:19:50;;;;;;;4.97;1.40;;;18.40;80.70;;;;;;5053495;28;20175;-75
2022/04/15 12:22:19;;;;;;;3.67;1.30;;;18.40;80.50;;;;;;5052903;28;20198;-75
2022/04/15 12:24:46;;;;;;;6.13;1.50;;;18.30;80.80;;;;;;5051636;28;20172;-73
2022/04/15 12:27:18;;;;;;;4.23;1.60;;;18.30;80.90;;;;;;5033925;28;20507;-75
2022/04/15 12:29:48;;;;;;;3.60;1.30;;;18.30;81.10;;;;;;5040393;28;20176;-76
2022/04/15 12:32:22;;;;;;;3.47;1.37;;;18.30;81.30;;;;;;5059489;28;20199;-75
2022/04/15 12:34:56;;;;;;;5.57;1.30;;;18.30;81.10;;;;;;5072332;28;20175;-75
2022/04/15 12:37:41;;;;;;;3.83;1.50;;;18.30;81.20;;;;;;5033730;28;20195;-75
2022/04/15 12:40:08;;;;;;;4.03;1.50;;;18.30;81.40;;;;;;5040415;28;20186;-74
2022/04/15 12:42:37;;;;;;;2.47;1.20;;;18.20;81.70;;;;;;5035219;28;20224;-74
2022/04/15 12:45:11;;;;;;;3.23;1.37;;;18.20;81.70;;;;;;5051512;28;20182;-74
2022/04/15 12:47:40;;;;;;;4.07;1.40;;;18.20;81.90;;;;;;5052381;28;20797;-75
2022/04/15 12:50:19;;;;;;;3.20;1.50;;;18.20;82.20;;;;;;5052811;28;20649;-74
2022/04/15 12:52:47;;;;;;;2.07;1.23;;;18.20;82.10;;;;;;5046920;28;20303;-74
2022/04/15 12:55:24;;;;;;;1.90;1.40;;;18.10;82.20;;;;;;5052701;28;20192;-74
2022/04/15 12:57:52;;;;;;;2.73;1.47;;;18.10;82.40;;;;;;5047568;28;20184;-74
2022/04/15 13:00:19;;;;;;;8.13;1.93;;;18.10;82.10;;;;;;5046958;28;20176;-74
2022/04/15 13:02:47;;;;;;;5.23;1.63;;;18.10;82.20;;;;;;5063459;28;20217;-75
2022/04/15 13:05:15;;;;;;;5.57;1.50;;;18.10;82.30;;;;;;5070766;28;20178;-75